Time;durP1;ratioP1;P1;durP2;ratioP2;P2;SDS_P1;SDS_P2;PMS_P1;PMS_P2;Temp;Humidity;BMP_temperature;BMP_pressure;BME280_temperature;BME280_humidity;BME280_pressure;Samples;Min_cycle;Max_cycle;Signal;HPM_P1;HPM_P2
2022/12/10 01:05:39;;;;;;;41.25;24.05;;;;;;;6.13;94.78;93096.30;1831929;77;25839;-48
2022/12/10 01:08:07;;;;;;;27.98;17.57;;;;;;;6.09;94.47;93114.78;1796991;78;21022;-53
2022/12/10 01:10:34;;;;;;;33.20;20.32;;;;;;;6.13;94.30;93109.95;1808889;78;22110;-48
2022/12/10 01:13:03;;;;;;;52.00;32.75;;;;;;;6.16;94.10;93112.49;1793786;78;21139;-48
2022/12/10 01:15:29;;;;;;;41.18;25.02;;;;;;;6.21;94.00;93104.30;1777679;79;20961;-49
2022/12/10 01:17:57;;;;;;;34.65;21.25;;;;;;;6.27;93.93;93103.83;1795077;79;21450;-49
2022/12/10 01:20:24;;;;;;;27.27;18.50;;;;;;;6.35;94.18;93099.57;1793045;78;21105;-48
2022/12/10 01:22:50;;;;;;;43.45;24.77;;;;;;;6.43;94.04;93089.83;1787047;79;21237;-47
2022/12/10 01:25:17;;;;;;;37.50;23.98;;;;;;;6.52;93.98;93092.53;1779205;79;21120;-48
2022/12/10 01:27:44;;;;;;;47.60;27.48;;;;;;;6.65;94.06;93098.53;1789052;78;21498;-48
2022/12/10 01:30:12;;;;;;;37.98;22.07;;;;;;;6.72;93.69;93103.06;1799276;79;21007;-48
2022/12/10 01:32:38;;;;;;;33.05;18.02;;;;;;;6.82;93.81;93087.37;1789716;79;21463;-50
2022/12/10 01:35:08;;;;;;;29.32;17.52;;;;;;;6.92;93.41;93090.23;1798216;78;21250;-48
2022/12/10 01:37:35;;;;;;;31.17;18.57;;;;;;;6.95;92.92;93083.23;1819195;78;21430;-49
2022/12/10 01:40:02;;;;;;;29.45;18.50;;;;;;;6.95;92.66;93071.53;1787466;78;21006;-49
2022/12/10 01:42:29;;;;;;;23.45;14.87;;;;;;;6.95;92.79;93061.36;1781268;79;21463;-49
2022/12/10 01:45:04;;;;;;;20.43;11.38;;;;;;;6.96;92.93;93052.54;1792262;79;21439;-48
2022/12/10 01:47:31;;;;;;;26.23;16.37;;;;;;;7.02;93.51;93053.41;1803825;78;21257;-49
2022/12/10 01:50:00;;;;;;;19.95;13.53;;;;;;;7.07;93.82;93047.32;1802382;78;20995;-48
2022/12/10 01:52:27;;;;;;;21.50;13.28;;;;;;;7.09;93.55;93016.31;1776697;79;20959;-47
2022/12/10 01:54:55;;;;;;;29.30;15.70;;;;;;;7.06;93.52;93014.38;1768387;79;20967;-48
2022/12/10 01:57:25;;;;;;;29.42;17.35;;;;;;;7.08;93.79;92999.62;1792076;78;20989;-48
2022/12/10 01:59:58;;;;;;;27.70;16.10;;;;;;;7.09;93.30;92998.54;1800196;78;21228;-48
2022/12/10 02:02:58;;;;;;;32.55;18.17;;;;;;;7.09;93.31;92975.90;1718037;82;21140;-46
2022/12/10 02:05:51;;;;;;;58.68;41.83;;;;;;;7.11;93.32;92970.12;1711471;82;21483;-48
2022/12/10 02:08:26;;;;;;;27.98;19.85;;;;;;;7.13;93.46;92974.50;1689502;82;21071;-48
2022/12/10 02:11:16;;;;;;;27.95;17.60;;;;;;;7.16;93.15;92979.66;1706066;82;21030;-48
2022/12/10 02:14:02;;;;;;;27.48;14.95;;;;;;;7.19;93.49;92946.64;1708390;83;21239;-47
2022/12/10 02:16:39;;;;;;;24.70;13.80;;;;;;;7.24;93.56;92937.05;1708626;83;21172;-49
2022/12/10 02:19:29;;;;;;;24.77;15.63;;;;;;;7.24;93.11;92952.08;1709725;83;21585;-47
2022/12/10 02:21:57;;;;;;;25.45;16.30;;;;;;;7.18;92.70;92945.14;1710612;83;20984;-48
2022/12/10 02:24:29;;;;;;;30.65;19.42;;;;;;;7.16;93.09;92958.53;1697378;83;21009;-49
2022/12/10 02:34:57;;;;;;;29.10;16.27;;;;;;;7.27;92.65;92924.56;1825047;77;26304;-50
2022/12/10 02:37:32;;;;;;;30.75;17.37;;;;;;;7.29;92.73;92930.31;1792709;79;20981;-50
2022/12/10 02:40:03;;;;;;;24.65;16.32;;;;;;;7.36;92.50;92939.51;1792437;78;21188;-49
2022/12/10 02:42:32;;;;;;;32.78;20.45;;;;;;;7.36;91.75;92941.50;1807289;78;21141;-49
2022/12/10 02:44:58;;;;;;;34.05;21.42;;;;;;;7.22;91.22;92927.95;1803073;78;21013;-49
2022/12/10 02:47:26;;;;;;;34.35;20.25;;;;;;;7.12;91.44;92923.78;1791570;78;21048;-48
2022/12/10 02:49:56;;;;;;;26.70;19.65;;;;;;;7.07;91.56;92923.67;1782339;79;20966;-49
2022/12/10 02:52:24;;;;;;;30.15;18.07;;;;;;;7.04;91.56;92943.01;1795478;78;21848;-48
2022/12/10 02:54:52;;;;;;;26.87;16.82;;;;;;;6.99;91.76;92924.50;1800564;78;21419;-48
2022/12/10 02:57:29;;;;;;;33.23;18.85;;;;;;;6.95;92.20;92951.27;1816690;78;20982;-48
2022/12/10 03:00:15;;;;;;;21.45;15.32;;;;;;;6.88;92.36;92936.60;1792724;78;21043;-49
2022/12/10 03:03:15;;;;;;;19.12;14.30;;;;;;;6.90;93.14;92919.13;1772938;79;20982;-49
2022/12/10 03:06:18;;;;;;;33.58;22.20;;;;;;;6.94;93.51;92926.52;1779029;78;21271;-49
2022/12/10 03:08:58;;;;;;;25.05;15.45;;;;;;;7.08;94.39;92958.61;1760364;80;21069;-49
2022/12/10 03:11:25;;;;;;;14.65;11.25;;;;;;;7.14;93.75;92915.86;1762096;80;20990;-50
2022/12/10 08:06:48;;;;;;;34.55;21.90;;;;;;;8.62;100.00;92977.80;1818097;77;26209;-50
2022/12/10 08:09:15;;;;;;;31.42;20.37;;;;;;;8.71;100.00;92968.11;1778063;79;21005;-49
2022/12/10 08:11:42;;;;;;;28.83;17.40;;;;;;;8.87;99.52;92976.41;1781321;80;21239;-50
2022/12/10 08:14:09;;;;;;;39.27;23.50;;;;;;;8.95;99.05;92973.55;1776844;79;21053;-49
2022/12/10 08:16:37;;;;;;;46.05;25.82;;;;;;;9.07;98.55;92970.33;1775869;80;21029;-50
2022/12/10 08:19:04;;;;;;;36.75;22.05;;;;;;;9.18;97.88;92971.22;1778541;79;20997;-50
2022/12/10 08:21:32;;;;;;;40.73;24.35;;;;;;;9.28;97.35;92973.20;1771389;80;21123;-51
2022/12/10 08:24:00;;;;;;;43.33;26.20;;;;;;;9.37;96.63;92970.30;1802171;78;21137;-49
2022/12/10 08:26:29;;;;;;;50.48;30.77;;;;;;;9.47;95.94;92977.16;1805886;78;20946;-49
2022/12/10 08:28:57;;;;;;;57.78;36.30;;;;;;;9.58;95.82;92978.66;1801892;78;20961;-50
2022/12/10 08:31:25;;;;;;;46.00;30.23;;;;;;;9.73;95.59;92984.78;1776627;78;21011;-50
2022/12/10 08:33:52;;;;;;;37.85;26.05;;;;;;;9.94;95.05;92980.14;1739744;80;21599;-49
2022/12/10 08:36:19;;;;;;;60.78;40.03;;;;;;;10.10;94.24;92982.92;1765541;80;21262;-48
2022/12/10 08:38:46;;;;;;;54.45;36.15;;;;;;;10.20;93.68;92987.76;1794179;78;20986;-49
2022/12/10 08:41:19;;;;;;;39.35;25.48;;;;;;;10.34;93.02;92994.39;1793819;78;21019;-48
2022/12/10 08:43:46;;;;;;;35.23;22.87;;;;;;;10.44;92.01;92995.70;1784870;78;20978;-49
2022/12/10 08:46:13;;;;;;;39.40;25.35;;;;;;;10.52;91.10;93000.27;1779467;80;21024;-49
2022/12/10 08:48:40;;;;;;;17.20;12.98;;;;;;;10.58;90.51;93013.45;1786982;79;21049;-49
2022/12/10 08:51:08;;;;;;;25.60;18.42;;;;;;;10.63;90.00;93001.73;1779825;80;21074;-48
2022/12/10 08:53:35;;;;;;;30.37;21.80;;;;;;;10.68;89.31;93009.27;1782565;79;20994;-48
2022/12/10 08:56:03;;;;;;;36.80;24.10;;;;;;;10.73;88.92;93007.94;1783594;79;21508;-49
2022/12/10 08:58:30;;;;;;;35.35;24.02;;;;;;;10.80;88.37;92999.22;1781366;79;20950;-51
2022/12/10 09:00:58;;;;;;;41.55;25.97;;;;;;;10.84;87.77;92999.73;1764670;80;22088;-50
2022/12/10 09:03:25;;;;;;;64.75;43.00;;;;;;;10.85;87.53;93001.27;1771287;80;20995;-52
2022/12/10 09:05:52;;;;;;;43.73;27.30;;;;;;;10.96;87.49;93005.45;1752854;80;20982;-51
2022/12/10 09:08:19;;;;;;;36.20;24.65;;;;;;;11.00;86.58;93006.61;1784204;79;20975;-48
2022/12/10 09:10:46;;;;;;;38.83;25.27;;;;;;;11.02;86.58;92997.23;1784423;79;21454;-50
2022/12/10 09:13:13;;;;;;;34.13;23.45;;;;;;;11.04;86.60;93012.02;1782739;79;21149;-51
2022/12/10 09:15:40;;;;;;;34.85;22.80;;;;;;;11.08;86.48;93015.29;1774458;79;21121;-49
2022/12/10 09:18:07;;;;;;;37.13;25.25;;;;;;;11.16;86.39;93010.81;1781437;80;20962;-50
2022/12/10 09:20:33;;;;;;;35.98;26.45;;;;;;;11.22;86.14;93010.24;1778757;79;21495;-50
2022/12/10 09:23:00;;;;;;;46.90;33.05;;;;;;;11.30;86.10;93013.26;1777234;79;21024;-51
2022/12/10 09:25:27;;;;;;;47.83;33.28;;;;;;;11.43;86.08;93024.59;1785339;79;21181;-53
2022/12/10 09:27:53;;;;;;;40.88;27.30;;;;;;;11.52;85.52;93021.00;1783695;79;21652;-50
2022/12/10 09:30:21;;;;;;;33.48;23.40;;;;;;;11.55;84.36;93017.26;1763335;80;20931;-49
2022/12/10 09:32:48;;;;;;;37.03;24.77;;;;;;;11.51;83.87;93018.13;1786815;79;21083;-49
2022/12/10 09:35:15;;;;;;;37.38;27.07;;;;;;;11.57;84.03;93021.67;1785419;79;21021;-50
2022/12/10 09:37:42;;;;;;;48.30;33.75;;;;;;;11.60;84.22;93015.20;1779335;78;21146;-50
2022/12/10 09:40:17;;;;;;;44.73;31.15;;;;;;;11.60;83.72;93022.08;1759112;80;21020;-50
2022/12/10 09:42:58;;;;;;;48.35;32.63;;;;;;;11.62;83.92;93016.06;1772013;79;21718;-49
2022/12/10 09:45:40;;;;;;;59.70;37.17;;;;;;;11.67;84.01;93031.23;1802596;78;20993;-50
2022/12/10 09:48:30;;;;;;;52.30;35.40;;;;;;;11.64;83.78;93032.23;1778817;79;21063;-51
2022/12/10 09:51:29;;;;;;;54.23;34.60;;;;;;;11.66;84.21;93025.60;1799233;78;21278;-51
2022/12/10 09:53:59;;;;;;;55.85;37.55;;;;;;;11.72;84.76;93024.98;1706011;83;21701;-48
2022/12/10 09:56:33;;;;;;;56.85;36.38;;;;;;;11.80;84.27;93023.28;1709186;83;21861;-51
2022/12/10 09:59:06;;;;;;;56.90;36.80;;;;;;;11.85;84.29;93021.77;1710060;83;22250;-50
2022/12/10 10:01:49;;;;;;;73.70;46.25;;;;;;;11.93;84.19;93009.77;1716478;83;21128;-49
2022/12/10 10:04:19;;;;;;;126.82;67.42;;;;;;;11.98;84.23;93013.19;1682972;83;21274;-51
2022/12/10 10:06:48;;;;;;;105.05;58.02;;;;;;;12.05;84.36;93018.20;1697505;83;21039;-50
2022/12/10 10:09:20;;;;;;;69.80;42.38;;;;;;;12.15;84.00;93006.32;1701925;83;21071;-53
2022/12/10 10:11:50;;;;;;;42.78;28.23;;;;;;;12.23;83.88;93002.58;1688901;82;21617;-50
2022/12/10 10:14:24;;;;;;;31.02;21.60;;;;;;;12.23;83.69;93021.88;1657134;85;21041;-51
2022/12/10 10:17:06;;;;;;;37.88;25.32;;;;;;;12.26;83.00;93015.36;1552932;90;21157;-52
2022/12/10 10:19:39;;;;;;;47.48;27.58;;;;;;;12.26;81.50;93009.84;1584536;89;21128;-51
2022/12/10 10:22:12;;;;;;;44.63;29.85;;;;;;;12.19;81.28;93019.98;1565531;89;21095;-52
2022/12/10 10:24:45;;;;;;;56.75;39.18;;;;;;;12.06;81.37;93015.57;1614249;87;21263;-51
2022/12/10 10:27:21;;;;;;;47.80;32.48;;;;;;;11.92;81.28;93013.04;1620251;87;21070;-51
2022/12/10 10:29:50;;;;;;;52.35;33.40;;;;;;;11.88;81.26;93005.01;1639684;85;22296;-50
2022/12/10 10:32:27;;;;;;;53.48;34.85;;;;;;;11.94;81.93;93007.14;1688416;84;21258;-52
2022/12/10 10:34:56;;;;;;;46.02;30.10;;;;;;;12.06;81.82;93010.70;1631532;87;21179;-53
2022/12/10 10:38:33;;;;;;;54.30;33.38;;;;;;;12.25;81.95;93002.83;1822503;77;26195;-50
2022/12/10 10:41:03;;;;;;;40.30;27.02;;;;;;;12.35;81.46;93006.09;1790666;78;21600;-50
2022/12/10 10:43:41;;;;;;;40.55;26.05;;;;;;;12.30;81.04;93007.59;1783474;78;21779;-52
2022/12/10 10:46:19;;;;;;;37.95;25.65;;;;;;;12.19;80.95;93011.72;1789515;78;21038;-49
2022/12/10 10:48:46;;;;;;;26.95;19.50;;;;;;;12.12;81.15;93006.68;1792844;78;21002;-52
2022/12/10 16:10:49;;;;;;;181.12;110.72;;;;;;;8.65;100.00;93029.56;1833416;77;26141;-45
2022/12/10 16:13:21;;;;;;;159.93;100.22;;;;;;;8.60;100.00;93029.61;1806981;78;20946;-46
2022/12/10 16:15:57;;;;;;;130.67;83.17;;;;;;;8.62;100.00;93038.11;1792805;78;21846;-46
2022/12/10 16:18:24;;;;;;;121.42;79.35;;;;;;;8.60;100.00;93021.39;1797897;78;21488;-47
2022/12/10 16:20:51;;;;;;;88.47;59.80;;;;;;;8.60;100.00;93017.27;1807287;78;20969;-44
2022/12/10 16:23:18;;;;;;;94.17;59.73;;;;;;;8.61;100.00;93013.30;1799572;79;21073;-45
2022/12/10 16:25:45;;;;;;;88.07;58.17;;;;;;;8.64;100.00;93011.61;1805679;78;21001;-44
2022/12/10 16:28:18;;;;;;;90.72;59.93;;;;;;;8.64;100.00;93013.71;1792710;78;21937;-45
2022/12/10 16:30:49;;;;;;;92.20;58.95;;;;;;;8.67;100.00;93011.41;1813967;78;20959;-44
2022/12/10 16:33:18;;;;;;;62.17;42.23;;;;;;;8.71;100.00;93004.34;1790148;79;21014;-45
2022/12/10 16:35:49;;;;;;;51.40;37.00;;;;;;;8.70;100.00;93006.34;1757003;80;21417;-45
2022/12/10 16:38:18;;;;;;;49.00;36.28;;;;;;;8.66;100.00;93003.66;1754173;80;20999;-44
2022/12/10 16:40:44;;;;;;;48.60;36.45;;;;;;;8.63;100.00;93001.88;1763205;80;21933;-43
2022/12/10 16:43:18;;;;;;;54.65;39.13;;;;;;;8.60;100.00;93004.94;1776948;80;21540;-46
2022/12/10 16:45:45;;;;;;;45.65;33.30;;;;;;;8.62;100.00;93003.84;1711918;83;21557;-44
2022/12/10 16:48:14;;;;;;;47.88;32.88;;;;;;;8.65;100.00;93011.74;1711781;82;21771;-44
2022/12/10 16:50:41;;;;;;;36.38;28.42;;;;;;;8.62;100.00;93011.33;1713142;82;21017;-44
2022/12/10 16:53:29;;;;;;;41.85;30.80;;;;;;;8.59;100.00;93004.06;1709628;82;21450;-44
2022/12/10 16:55:56;;;;;;;44.88;32.48;;;;;;;8.56;100.00;92998.91;1708257;83;20959;-44
2022/12/10 16:58:23;;;;;;;47.35;32.63;;;;;;;8.54;100.00;93001.38;1712483;83;21014;-44
2022/12/10 17:00:53;;;;;;;38.73;27.85;;;;;;;8.51;100.00;93010.55;1708590;83;21616;-45
2022/12/10 17:03:25;;;;;;;34.05;26.42;;;;;;;8.50;100.00;93007.67;1681570;84;21469;-44
2022/12/10 17:05:59;;;;;;;38.78;29.05;;;;;;;8.50;100.00;93011.78;1711968;83;21737;-45
2022/12/10 17:08:27;;;;;;;28.40;22.70;;;;;;;8.49;100.00;92999.31;1713984;82;21095;-45
2022/12/10 17:13:40;;;;;;;25.60;19.67;;;;;;;8.48;99.41;92997.03;1689428;83;21505;-45
2022/12/10 17:16:13;;;;;;;22.93;17.05;;;;;;;8.43;98.82;93003.94;1701090;83;20994;-44
2022/12/10 17:18:42;;;;;;;22.77;17.67;;;;;;;8.36;98.10;93002.97;1696675;83;21006;-44
2022/12/10 17:21:09;;;;;;;24.67;19.05;;;;;;;8.27;97.73;92996.20;1700542;83;20970;-46
2022/12/10 17:23:36;;;;;;;20.77;18.02;;;;;;;8.21;97.46;92995.38;1696478;83;21094;-44
2022/12/10 17:26:04;;;;;;;19.40;16.23;;;;;;;8.14;97.42;92990.86;1666730;85;21038;-46
2022/12/10 17:28:31;;;;;;;22.02;14.47;;;;;;;8.10;97.07;92983.46;1654953;86;21479;-43
2022/12/10 17:30:58;;;;;;;20.95;17.00;;;;;;;8.05;96.87;92986.88;1625916;87;21234;-45
2022/12/10 17:33:25;;;;;;;20.43;16.00;;;;;;;8.02;97.15;92988.56;1652621;85;20975;-44
2022/12/10 17:35:52;;;;;;;19.85;15.95;;;;;;;8.04;97.19;92980.63;1660515;86;21018;-46
2022/12/10 17:38:24;;;;;;;17.32;14.25;;;;;;;8.04;96.85;92984.73;1620729;86;21109;-44
2022/12/10 17:40:52;;;;;;;19.05;15.00;;;;;;;8.03;96.84;92987.33;1549603;90;21065;-44
2022/12/10 17:43:19;;;;;;;19.17;14.45;;;;;;;8.01;96.63;92982.17;1559016;90;21196;-44
2022/12/10 17:45:45;;;;;;;16.23;12.63;;;;;;;8.01;96.47;92986.28;1575893;90;21025;-45
2022/12/10 17:48:14;;;;;;;16.75;13.32;;;;;;;7.94;95.94;92982.57;1581176;87;21140;-44
2022/12/10 17:50:43;;;;;;;22.52;16.20;;;;;;;7.90;95.87;92973.17;1600664;89;21484;-44
2022/12/10 17:53:14;;;;;;;21.00;15.43;;;;;;;7.85;95.63;92975.20;1597837;86;21102;-44
2022/12/10 17:55:41;;;;;;;21.80;15.88;;;;;;;7.85;95.25;92974.47;1618351;87;21808;-44
2022/12/10 17:58:11;;;;;;;25.82;18.15;;;;;;;7.80;95.26;92984.09;1650311;86;21467;-44
2022/12/10 18:00:37;;;;;;;20.40;16.10;;;;;;;7.84;95.20;92983.88;1658007;86;21049;-44
2022/12/10 21:58:11;;;;;;;15.13;12.43;;;;;;;5.03;96.61;92827.60;1833601;77;26206;-44
2022/12/10 22:00:38;;;;;;;14.55;12.00;;;;;;;5.02;96.64;92823.96;1810693;78;21052;-44
2022/12/10 22:03:05;;;;;;;14.00;11.08;;;;;;;5.07;96.48;92821.37;1790627;79;22033;-42
2022/12/10 22:05:32;;;;;;;13.05;10.93;;;;;;;5.11;96.53;92819.86;1790835;79;20994;-43
2022/12/10 22:08:00;;;;;;;13.58;11.33;;;;;;;5.15;96.51;92817.73;1799869;78;21194;-44
2022/12/10 22:10:27;;;;;;;19.60;11.88;;;;;;;5.22;96.45;92806.48;1791792;79;20970;-43
2022/12/10 22:12:56;;;;;;;18.23;12.28;;;;;;;5.29;96.28;92809.64;1789936;79;21584;-43
2022/12/10 22:15:23;;;;;;;17.48;13.25;;;;;;;5.37;95.97;92814.30;1789636;78;21798;-44
2022/12/10 22:17:52;;;;;;;15.53;12.15;;;;;;;5.41;95.38;92795.80;1812313;78;21068;-43
2022/12/10 22:20:19;;;;;;;13.40;10.18;;;;;;;5.42;94.81;92796.58;1803683;78;20943;-45
2022/12/10 22:22:45;;;;;;;12.13;9.88;;;;;;;5.41;94.65;92796.42;1788341;78;20963;-45
2022/12/10 22:25:12;;;;;;;11.25;10.05;;;;;;;5.42;94.37;92795.95;1797174;78;20962;-44
2022/12/10 22:27:40;;;;;;;12.00;9.78;;;;;;;5.43;94.13;92786.55;1811613;78;21222;-44
2022/12/10 22:30:10;;;;;;;10.45;9.45;;;;;;;5.44;93.87;92790.05;1791074;78;20943;-44
2022/12/10 22:32:40;;;;;;;10.65;9.55;;;;;;;5.40;93.25;92776.58;1786381;79;21090;-44
2022/12/10 22:35:07;;;;;;;11.68;9.45;;;;;;;5.37;93.16;92780.23;1788378;79;20982;-44
2022/12/10 22:37:34;;;;;;;11.38;10.08;;;;;;;5.35;93.09;92776.44;1770959;79;21443;-43
2022/12/10 22:40:04;;;;;;;10.50;9.13;;;;;;;5.34;92.96;92760.71;1795959;79;22117;-43
2022/12/10 22:42:29;;;;;;;14.80;9.65;;;;;;;5.37;93.06;92760.37;1791568;79;20949;-45
2022/12/10 22:44:55;;;;;;;11.95;10.35;;;;;;;5.40;93.16;92747.20;1793307;79;21006;-43
2022/12/10 22:47:22;;;;;;;10.40;8.63;;;;;;;5.45;92.49;92743.84;1804930;78;20950;-43
2022/12/10 22:49:49;;;;;;;11.57;9.45;;;;;;;5.40;92.15;92756.12;1792245;79;21029;-43
2022/12/10 22:52:15;;;;;;;12.70;9.90;;;;;;;5.35;92.07;92742.37;1803516;78;21254;-43
